createdAt,value
2022-10-13T00:02:44.327Z,40.50
2022-10-13T00:07:50.134Z,40.70
2022-10-13T00:12:57.966Z,42.77
2022-10-13T00:18:03.176Z,31.23
2022-10-13T00:23:13.445Z,45.50
2022-10-13T00:28:22.962Z,34.90
2022-10-13T00:33:28.255Z,40.93
2022-10-13T00:38:35.387Z,39.43
2022-10-13T00:44:02.268Z,40.33
2022-10-13T00:49:15.917Z,32.33
2022-10-13T00:54:24.755Z,36.83
2022-10-13T00:59:29.999Z,32.70
2022-10-13T01:04:42.248Z,27.20
2022-10-13T01:09:47.643Z,30.00
2022-10-13T01:15:00.714Z,35.40
2022-10-13T01:20:24.876Z,32.60
2022-10-13T01:25:45.025Z,29.93
2022-10-13T01:31:03.204Z,34.77
2022-10-13T01:36:29.432Z,45.90
2022-10-13T01:41:44.044Z,39.30
2022-10-13T01:46:55.099Z,38.60
2022-10-13T01:52:03.451Z,37.83
2022-10-13T01:57:29.126Z,39.10
2022-10-13T02:02:41.680Z,47.03
2022-10-13T02:08:03.498Z,37.60
2022-10-13T02:13:12.905Z,40.13
2022-10-13T02:18:30.690Z,33.00
2022-10-13T02:23:37.606Z,36.73
2022-10-13T02:28:43.996Z,33.23
2022-10-13T02:33:50.466Z,31.60
2022-10-13T02:39:01.891Z,37.97
2022-10-13T02:44:10.611Z,35.47
2022-10-13T02:49:18.887Z,37.10
2022-10-13T02:54:24.156Z,35.37
2022-10-13T02:59:31.431Z,52.10
2022-10-13T03:04:36.690Z,45.50
2022-10-13T03:09:50.634Z,48.40
2022-10-13T03:14:57.997Z,53.30
2022-10-13T03:20:05.301Z,44.70
2022-10-13T03:25:10.649Z,42.53
2022-10-13T03:30:22.310Z,40.80
2022-10-13T03:35:28.263Z,41.43
2022-10-13T03:40:37.922Z,40.07
2022-10-13T03:45:44.850Z,38.33
2022-10-13T03:50:52.153Z,35.30
2022-10-13T03:55:58.558Z,35.07
2022-10-13T04:01:11.835Z,39.67
2022-10-13T04:06:15.267Z,39.43
2022-10-13T04:11:21.930Z,35.63
2022-10-13T04:16:30.899Z,38.73
2022-10-13T04:21:43.096Z,32.97
2022-10-13T04:26:48.990Z,43.87
2022-10-13T04:31:54.287Z,35.27
2022-10-13T04:36:59.975Z,52.23
2022-10-13T04:42:07.047Z,41.70
2022-10-13T04:47:12.439Z,43.23
2022-10-13T04:52:18.559Z,31.30
2022-10-13T04:57:29.118Z,33.73
2022-10-13T05:02:38.311Z,33.57
2022-10-13T05:07:43.689Z,39.87
2022-10-13T05:12:48.902Z,29.43
2022-10-13T05:17:54.148Z,27.37
2022-10-13T05:22:59.364Z,34.30
2022-10-13T05:28:06.919Z,34.27
2022-10-13T05:33:12.127Z,42.30
2022-10-13T05:38:21.402Z,40.50
2022-10-13T05:43:25.869Z,41.23
2022-10-13T05:48:32.811Z,45.37
2022-10-13T05:53:49.102Z,44.13
2022-10-13T05:58:56.155Z,39.87
2022-10-13T06:04:04.368Z,40.97
2022-10-13T06:09:13.001Z,41.97
2022-10-13T06:14:18.228Z,46.30
2022-10-13T06:19:23.403Z,51.27
2022-10-13T06:24:28.541Z,59.83
2022-10-13T06:29:33.910Z,66.07
2022-10-13T06:34:39.254Z,56.30
2022-10-13T06:39:48.333Z,47.47
2022-10-13T06:44:53.511Z,44.77
2022-10-13T06:50:01.391Z,57.33
2022-10-13T06:55:07.166Z,51.87
2022-10-13T07:00:13.737Z,42.93
2022-10-13T07:05:19.187Z,40.97
2022-10-13T07:10:24.415Z,38.30
2022-10-13T07:15:29.668Z,35.23
2022-10-13T07:20:35.407Z,44.30
2022-10-13T07:25:40.659Z,35.43
2022-10-13T07:30:46.058Z,34.60
2022-10-13T07:35:51.328Z,31.13
2022-10-13T07:40:56.521Z,29.87
2022-10-13T07:46:04.841Z,41.43
2022-10-13T07:51:13.384Z,38.43
2022-10-13T07:56:19.615Z,34.70
2022-10-13T08:01:24.993Z,25.63
2022-10-13T08:06:30.324Z,33.83
2022-10-13T08:11:36.542Z,28.53
2022-10-13T08:16:43.406Z,32.60
2022-10-13T08:22:07.816Z,23.60
2022-10-13T08:26:56.293Z,32.07
2022-10-13T08:32:01.651Z,27.47
2022-10-13T08:37:08.559Z,30.13
2022-10-13T08:42:20.389Z,27.57
2022-10-13T08:47:38.115Z,23.97
2022-10-13T08:52:58.071Z,24.43
2022-10-13T08:58:06.394Z,18.53
2022-10-13T09:03:26.954Z,18.73
2022-10-13T09:08:35.107Z,21.10
2022-10-13T09:13:40.349Z,15.83
2022-10-13T09:18:45.583Z,18.50
2022-10-13T09:23:54.645Z,20.57
2022-10-13T09:29:01.308Z,19.83
2022-10-13T09:34:19.032Z,16.50
2022-10-13T09:39:24.311Z,12.50
2022-10-13T09:44:33.083Z,15.70
2022-10-13T09:49:45.270Z,15.77
2022-10-13T09:54:53.688Z,17.10
2022-10-13T10:00:24.211Z,11.23
2022-10-13T10:05:41.474Z,14.87
2022-10-13T10:10:47.777Z,13.83
2022-10-13T10:16:11.030Z,16.10
2022-10-13T10:21:34.034Z,14.33
2022-10-13T10:27:00.448Z,10.87
2022-10-13T10:32:14.653Z,12.10
2022-10-13T10:37:39.234Z,14.53
2022-10-13T10:42:53.004Z,10.10
2022-10-13T10:48:04.114Z,12.67
2022-10-13T10:53:12.257Z,11.53
2022-10-13T10:58:35.216Z,19.23
2022-10-13T11:03:45.896Z,18.97
2022-10-13T11:08:52.039Z,7.17
2022-10-13T11:14:00.508Z,20.40
2022-10-13T11:19:32.546Z,17.27
2022-10-13T11:24:49.631Z,11.27
2022-10-13T11:30:00.985Z,6.63
2022-10-13T11:35:15.268Z,7.47
2022-10-13T11:40:44.233Z,12.17
2022-10-13T11:46:11.414Z,7.97
2022-10-13T11:51:37.179Z,11.93
2022-10-13T11:56:50.939Z,13.30
2022-10-13T12:01:58.749Z,9.63
2022-10-13T12:07:07.331Z,7.27
2022-10-13T12:12:15.994Z,11.70
2022-10-13T12:17:31.208Z,11.27
2022-10-13T12:22:40.150Z,7.20
2022-10-13T12:27:52.610Z,11.53
2022-10-13T12:33:01.344Z,13.70
2022-10-13T12:38:12.433Z,13.97
2022-10-13T12:43:20.967Z,11.70
2022-10-13T12:48:35.261Z,10.70
2022-10-13T12:53:48.627Z,5.37
2022-10-13T12:58:54.104Z,10.77
2022-10-13T13:04:04.970Z,9.23
2022-10-13T13:09:22.017Z,6.47
2022-10-13T13:14:42.287Z,8.10
2022-10-13T13:19:52.840Z,8.80
2022-10-13T13:24:59.554Z,9.83
2022-10-13T13:30:14.575Z,10.43
2022-10-13T13:35:20.286Z,9.13
2022-10-13T13:40:39.589Z,6.57
2022-10-13T13:45:44.045Z,6.00
2022-10-13T13:50:55.154Z,7.47
2022-10-13T13:56:00.639Z,7.70
2022-10-13T14:01:06.262Z,11.20
2022-10-13T14:11:44.121Z,11.23
2022-10-13T14:16:50.322Z,10.80
2022-10-13T14:21:59.867Z,14.63
2022-10-13T14:27:05.160Z,7.17
2022-10-13T14:32:11.816Z,11.20
2022-10-13T14:37:22.888Z,10.27
2022-10-13T14:42:25.088Z,8.07
2022-10-13T14:47:30.382Z,17.20
2022-10-13T14:52:35.536Z,8.73
2022-10-13T14:57:40.905Z,8.63
2022-10-13T15:02:46.174Z,7.47
2022-10-13T15:07:51.517Z,6.53
2022-10-13T15:12:56.849Z,10.80
2022-10-13T15:18:03.078Z,18.03
2022-10-13T15:23:08.401Z,14.73
2022-10-13T15:28:13.625Z,17.93
2022-10-13T15:33:20.164Z,17.67
2022-10-13T15:38:25.931Z,18.53
2022-10-13T15:43:31.208Z,16.90
2022-10-13T15:48:37.056Z,15.97
2022-10-13T15:53:42.682Z,16.80
2022-10-13T15:58:55.775Z,12.87
2022-10-13T16:04:01.033Z,10.60
2022-10-13T16:09:06.279Z,11.67
2022-10-13T16:14:11.608Z,12.37
2022-10-13T16:19:16.846Z,15.27
2022-10-13T16:24:22.224Z,20.40
2022-10-13T16:29:27.768Z,24.27
2022-10-13T16:34:33.145Z,22.20
2022-10-13T16:39:43.156Z,26.40
2022-10-13T16:44:45.896Z,52.33
2022-10-13T16:49:51.184Z,48.93
2022-10-13T16:54:56.312Z,34.07
2022-10-13T17:00:22.809Z,59.10
2022-10-13T17:05:28.104Z,57.83
2022-10-13T17:10:34.529Z,75.07
2022-10-13T17:15:39.809Z,54.27
2022-10-13T17:20:53.932Z,55.70
2022-10-13T17:26:05.047Z,67.17
2022-10-13T17:31:16.505Z,38.87
2022-10-13T17:36:25.416Z,27.13
2022-10-13T17:41:30.823Z,39.37
2022-10-13T17:46:38.682Z,78.43
2022-10-13T17:51:45.984Z,72.20
2022-10-13T17:56:52.193Z,95.87
2022-10-13T18:01:57.636Z,98.73
2022-10-13T18:07:03.165Z,65.03
2022-10-13T18:12:08.632Z,40.60
2022-10-13T18:17:14.324Z,33.70
2022-10-13T18:22:19.705Z,32.70
2022-10-13T18:27:25.089Z,38.57
2022-10-13T18:32:30.323Z,49.53
2022-10-13T18:37:37.333Z,75.10
2022-10-13T18:42:46.759Z,62.70
2022-10-13T18:47:56.453Z,72.97
2022-10-13T18:53:01.741Z,64.53
2022-10-13T18:58:06.973Z,42.90
2022-10-13T19:03:13.564Z,32.33
2022-10-13T19:08:18.925Z,31.60
2022-10-13T19:13:26.525Z,35.47
2022-10-13T19:18:32.063Z,35.53
2022-10-13T19:23:37.440Z,37.47
2022-10-13T19:28:43.695Z,38.53
2022-10-13T19:33:50.779Z,41.43
2022-10-13T19:38:56.370Z,53.17
2022-10-13T19:44:02.029Z,64.23
2022-10-13T19:49:08.064Z,112.87
2022-10-13T19:54:14.400Z,96.33
2022-10-13T19:59:20.531Z,103.70
2022-10-13T20:04:26.024Z,98.57
2022-10-13T20:09:31.395Z,78.53
2022-10-13T20:14:37.583Z,53.87
2022-10-13T20:19:43.623Z,64.97
2022-10-13T20:24:49.558Z,57.77
2022-10-13T20:29:54.973Z,72.00
2022-10-13T20:35:00.276Z,67.80
2022-10-13T20:40:06.953Z,55.20
2022-10-13T20:45:12.195Z,73.83
2022-10-13T20:50:17.698Z,75.57
2022-10-13T20:55:23.006Z,70.90
2022-10-13T21:00:29.619Z,71.90
2022-10-13T21:05:35.838Z,70.73
2022-10-13T21:10:41.117Z,73.27
2022-10-13T21:15:48.553Z,69.47
2022-10-13T21:20:55.233Z,66.80
2022-10-13T21:26:06.220Z,57.50
2022-10-13T21:31:14.669Z,66.93
2022-10-13T21:36:23.329Z,61.43
2022-10-13T21:41:30.250Z,55.17
2022-10-13T21:46:36.718Z,63.27
2022-10-13T21:51:42.398Z,79.47
2022-10-13T21:56:47.923Z,74.03
2022-10-13T22:01:53.542Z,62.47
2022-10-13T22:06:59.536Z,52.93
2022-10-13T22:12:05.614Z,47.77
2022-10-13T22:17:11.026Z,49.40
2022-10-13T22:22:16.391Z,52.30
2022-10-13T22:27:23.387Z,51.60
2022-10-13T22:32:29.224Z,49.63
2022-10-13T22:37:34.592Z,45.97
2022-10-13T22:42:39.997Z,43.57
2022-10-13T22:47:45.528Z,46.47
2022-10-13T22:52:51.263Z,45.60
2022-10-13T22:57:56.803Z,47.13
2022-10-13T23:03:02.361Z,54.80
2022-10-13T23:08:09.016Z,48.13
2022-10-13T23:13:14.352Z,81.23
2022-10-13T23:18:20.415Z,62.57
2022-10-13T23:23:27.339Z,60.40
2022-10-13T23:28:33.950Z,53.87
2022-10-13T23:33:39.499Z,55.40
2022-10-13T23:38:45.159Z,57.50
2022-10-13T23:43:51.702Z,64.83
2022-10-13T23:48:57.931Z,53.17
2022-10-13T23:54:03.400Z,53.97
2022-10-13T23:59:08.791Z,58.37
